Time;durP1;ratioP1;P1;durP2;ratioP2;P2;SDS_P1;SDS_P2;PMS_P1;PMS_P2;Temp;Humidity;BMP_temperature;BMP_pressure;BME280_temperature;BME280_humidity;BME280_pressure;Samples;Min_cycle;Max_cycle;Signal;HPM_P1;HPM_P2
2022/02/02 00:00:19;;;;;;;10.72;5.78;;;;;;;-0.18;52.93;99642.97;1747245;80;21043;-69
2022/02/02 00:02:50;;;;;;;10.20;5.28;;;;;;;-0.22;52.94;99640.98;1748262;80;21091;-67
2022/02/02 00:05:37;;;;;;;12.03;5.67;;;;;;;-0.28;53.01;99644.73;1747944;81;21051;-67
2022/02/02 00:08:04;;;;;;;12.45;5.72;;;;;;;-0.33;53.07;99640.63;1747364;80;21502;-67
2022/02/02 00:10:48;;;;;;;10.88;5.80;;;;;;;-0.36;53.16;99642.36;1747646;81;21133;-67
2022/02/02 00:13:01;;;;;;;11.70;5.70;;;;;;;-0.40;53.23;99638.52;1745028;81;20976;-68
2022/02/02 00:20:51;;;;;;;12.47;5.97;;;;;;;-0.45;53.46;99631.78;1748385;80;20953;-67
2022/02/02 00:23:14;;;;;;;10.60;5.53;;;;;;;-0.50;53.51;99635.52;1745106;80;21839;-67
2022/02/02 00:25:46;;;;;;;12.85;5.85;;;;;;;-0.53;53.56;99646.42;1747097;80;21062;-67
2022/02/02 00:28:06;;;;;;;10.60;5.47;;;;;;;-0.58;53.65;99637.08;1713114;82;21028;-68
2022/02/02 00:30:37;;;;;;;11.20;5.55;;;;;;;-0.60;53.72;99631.22;1748376;80;21067;-69
2022/02/02 00:33:16;;;;;;;12.73;5.67;;;;;;;-0.64;53.79;99633.97;1747959;80;21034;-67
2022/02/02 00:35:38;;;;;;;9.60;5.45;;;;;;;-0.67;53.85;99625.20;1723842;81;21532;-69
2022/02/02 00:38:01;;;;;;;10.13;5.25;;;;;;;-0.71;53.92;99624.80;1714102;82;21020;-68
2022/02/02 00:40:28;;;;;;;13.00;6.10;;;;;;;-0.77;53.95;99618.56;1714999;82;21055;-68
2022/02/02 00:42:54;;;;;;;10.90;5.70;;;;;;;-0.85;53.99;99618.80;1714936;82;21692;-67
2022/02/02 00:45:24;;;;;;;11.08;5.25;;;;;;;-0.88;54.02;99613.16;1716562;81;21008;-69
2022/02/02 00:47:51;;;;;;;10.00;4.80;;;;;;;-0.92;54.04;99604.91;1732760;81;21119;-68
2022/02/02 00:50:18;;;;;;;12.33;5.80;;;;;;;-0.94;54.07;99600.36;1742535;81;21094;-66
2022/02/02 00:52:50;;;;;;;11.33;5.87;;;;;;;-0.96;54.11;99600.55;1718441;82;21059;-67
2022/02/02 00:55:13;;;;;;;12.33;5.85;;;;;;;-0.98;54.16;99597.86;1718073;82;21055;-67
2022/02/02 00:57:39;;;;;;;13.32;6.25;;;;;;;-1.02;54.26;99597.46;1718348;82;21133;-67
2022/02/02 01:00:08;;;;;;;13.38;5.87;;;;;;;-1.01;54.29;99594.33;1718798;81;21823;-68
2022/02/02 01:02:35;;;;;;;10.85;5.50;;;;;;;-1.02;54.39;99600.56;1744097;80;21031;-69
2022/02/02 01:05:01;;;;;;;11.93;5.15;;;;;;;-1.04;54.44;99592.12;1748557;80;22506;-67
2022/02/02 01:10:20;;;;;;;10.38;5.22;;;;;;;-1.07;54.47;99583.34;1748354;80;21486;-67
2022/02/02 01:12:51;;;;;;;12.25;5.45;;;;;;;-1.09;54.48;99573.56;1746847;81;21159;-68
2022/02/02 01:21:17;;;;;;;10.58;6.10;;;;;;;-1.16;54.54;99576.71;1743704;81;20992;-68
2022/02/02 01:28:12;;;;;;;10.68;5.65;;;;;;;-1.23;54.57;99571.48;1689775;85;21095;-67
2022/02/02 01:30:39;;;;;;;10.93;5.65;;;;;;;-1.29;54.68;99571.78;1690109;83;21060;-67
2022/02/02 01:33:07;;;;;;;13.32;5.50;;;;;;;-1.38;54.76;99565.17;1693295;82;21088;-68
2022/02/02 01:35:34;;;;;;;10.90;5.85;;;;;;;-1.38;54.76;99565.17;1715056;83;21020;-67
2022/02/02 01:38:01;;;;;;;12.50;6.08;;;;;;;-1.44;54.97;99565.47;1714989;83;21175;-67
2022/02/02 01:43:00;;;;;;;12.13;6.62;;;;;;;-1.50;55.11;99559.72;1747983;81;21114;-67
2022/02/02 01:45:30;;;;;;;14.40;6.60;;;;;;;-1.58;55.35;99561.25;1747882;80;21028;-68
2022/02/02 01:48:09;;;;;;;11.83;6.00;;;;;;;-1.58;55.35;99561.25;1747345;81;21039;-68
2022/02/02 01:50:25;;;;;;;13.10;6.85;;;;;;;-1.62;55.39;99562.64;1744557;80;26740;-67
2022/02/02 01:55:40;;;;;;;12.58;6.45;;;;;;;-1.69;55.53;99553.98;1748523;81;21095;-67
2022/02/02 02:00:55;;;;;;;13.90;7.17;;;;;;;-1.81;55.66;99555.11;1748584;82;21491;-68
2022/02/02 02:03:21;;;;;;;13.53;7.03;;;;;;;-1.82;55.72;99544.31;1748310;81;22105;-68
2022/02/02 02:05:48;;;;;;;14.25;7.08;;;;;;;-1.84;55.78;99536.36;1748289;80;21522;-67
2022/02/02 02:08:15;;;;;;;13.62;6.95;;;;;;;-1.83;56.07;99537.98;1747961;80;21101;-67
2022/02/02 02:10:42;;;;;;;11.90;7.00;;;;;;;-1.85;55.87;99547.33;1748349;80;20953;-67
2022/02/02 02:15:36;;;;;;;15.00;7.33;;;;;;;-1.90;55.92;99537.98;1748615;80;21168;-67
2022/02/02 02:18:03;;;;;;;14.98;6.97;;;;;;;-1.92;55.95;99543.91;1748406;81;21039;-68
2022/02/02 02:20:30;;;;;;;13.62;7.28;;;;;;;-1.97;56.00;99538.48;1744612;81;21170;-67
2022/02/02 02:22:56;;;;;;;17.27;7.55;;;;;;;-2.02;56.01;99535.66;1748299;80;21047;-67
2022/02/02 02:25:26;;;;;;;14.78;7.42;;;;;;;-2.06;56.10;99533.94;1746039;81;21048;-67
2022/02/02 02:27:55;;;;;;;15.32;7.67;;;;;;;-2.10;56.17;99527.50;1717964;82;21823;-67
2022/02/02 02:33:31;;;;;;;13.90;6.62;;;;;;;-2.14;56.30;99528.88;1716206;82;20969;-66
2022/02/02 02:36:21;;;;;;;12.23;6.25;;;;;;;-2.17;56.38;99527.49;1712148;82;21554;-67
2022/02/02 02:57:27;;;;;;;9.90;5.75;;;;;;;-2.31;56.45;99506.22;1709213;80;21052;-66
2022/02/02 03:30:07;;;;;;;12.65;6.70;;;;;;;-2.48;56.57;99484.88;1748489;81;20992;-67
2022/02/02 03:51:27;;;;;;;11.28;5.95;;;;;;;-3.14;57.30;99491.98;1717030;81;21104;-67
2022/02/02 03:56:30;;;;;;;11.08;5.97;;;;;;;-3.21;57.65;99486.44;1748307;80;20965;-68
2022/02/02 03:58:52;;;;;;;10.88;5.62;;;;;;;-3.24;57.81;99494.66;1744412;81;21008;-67
2022/02/02 04:06:23;;;;;;;10.60;5.40;;;;;;;-3.26;58.12;99494.84;1748492;80;20996;-68
2022/02/02 04:08:48;;;;;;;11.55;5.45;;;;;;;-3.26;58.22;99494.84;1748224;80;21024;-68
2022/02/02 04:11:27;;;;;;;11.00;5.85;;;;;;;-3.30;58.45;99494.92;1748440;80;21157;-67
2022/02/02 04:38:58;;;;;;;13.18;6.10;;;;;;;-3.54;59.59;99499.61;1712619;83;21044;-67
2022/02/02 04:52:13;;;;;;;10.85;5.17;;;;;;;-3.42;59.67;99494.67;1680598;85;21065;-67
2022/02/02 04:54:34;;;;;;;11.22;6.20;;;;;;;-3.36;59.69;99496.99;1709321;82;21566;-68
2022/02/02 04:57:28;;;;;;;12.47;5.78;;;;;;;-3.31;59.68;99500.64;1710999;83;20973;-68
2022/02/02 05:07:49;;;;;;;12.82;5.00;;;;;;;-3.28;59.55;99499.97;1748395;82;21172;-68
2022/02/02 05:13:39;;;;;;;11.68;5.60;;;;;;;-3.57;59.85;99505.71;1748407;80;21016;-66
2022/02/02 05:27:28;;;;;;;12.25;5.97;;;;;;;-3.59;60.45;99496.75;1748399;80;20982;-67
2022/02/02 05:52:44;;;;;;;17.50;6.83;;;;;;;-3.43;60.82;99512.62;1748142;80;21039;-67
2022/02/02 05:55:10;;;;;;;12.85;6.70;;;;;;;-3.44;60.81;99513.63;1748233;80;21020;-67
2022/02/02 05:57:41;;;;;;;11.57;5.50;;;;;;;-3.47;60.86;99513.20;1748464;80;21055;-67
2022/02/02 06:00:08;;;;;;;11.75;5.90;;;;;;;-3.50;60.89;99516.19;1747530;81;21146;-67
2022/02/02 06:02:38;;;;;;;11.45;6.40;;;;;;;-3.54;61.00;99520.48;1746758;81;21079;-67
2022/02/02 06:05:07;;;;;;;10.85;5.83;;;;;;;-3.49;61.04;99523.82;1748436;80;21554;-67
2022/02/02 06:07:41;;;;;;;13.28;6.42;;;;;;;-3.42;61.07;99524.70;1748231;81;21059;-68
2022/02/02 06:10:13;;;;;;;11.80;6.10;;;;;;;-3.35;61.06;99522.13;1748480;80;21063;-68
2022/02/02 06:12:41;;;;;;;10.05;5.78;;;;;;;-3.25;61.09;99523.09;1748844;80;21122;-68
2022/02/02 06:15:13;;;;;;;12.68;5.58;;;;;;;-3.16;61.00;99527.13;1748386;80;21641;-68
2022/02/02 06:17:46;;;;;;;11.15;5.92;;;;;;;-3.12;60.96;99521.85;1748502;81;21043;-68
2022/02/02 06:20:11;;;;;;;10.32;5.87;;;;;;;-3.09;60.93;99522.27;1748287;81;21032;-67
2022/02/02 06:23:00;;;;;;;13.60;5.55;;;;;;;-3.07;60.95;99515.03;1748841;81;20988;-69
2022/02/02 06:25:32;;;;;;;9.48;5.00;;;;;;;-3.01;60.91;99513.95;1748483;81;21138;-68
2022/02/02 06:28:05;;;;;;;10.32;5.20;;;;;;;-2.93;60.88;99510.69;1733183;81;21048;-68
2022/02/02 06:30:33;;;;;;;11.88;6.25;;;;;;;-2.91;60.82;99511.79;1715166;82;22216;-69
2022/02/02 06:33:06;;;;;;;14.60;6.72;;;;;;;-2.91;60.87;99502.14;1715234;82;21111;-68
2022/02/02 06:35:34;;;;;;;13.72;6.90;;;;;;;-2.89;60.91;99507.98;1746680;80;21079;-66
2022/02/02 06:38:01;;;;;;;13.03;6.53;;;;;;;-2.86;60.97;99515.94;1748526;80;21120;-68
2022/02/02 06:40:29;;;;;;;12.40;6.62;;;;;;;-2.84;61.04;99506.88;1748238;82;20948;-68
2022/02/02 06:42:56;;;;;;;14.47;7.28;;;;;;;-2.76;61.03;99505.09;1748496;81;21023;-67
2022/02/02 06:45:24;;;;;;;12.60;6.67;;;;;;;-2.67;61.00;99511.27;1748433;81;21036;-67
2022/02/02 06:47:53;;;;;;;14.18;6.42;;;;;;;-2.56;61.01;99499.45;1748345;81;21058;-66
2022/02/02 06:53:01;;;;;;;11.73;6.00;;;;;;;-2.26;60.78;99504.34;1748679;80;21032;-68
2022/02/02 06:55:39;;;;;;;12.13;6.53;;;;;;;-2.09;60.58;99507.38;1748464;81;21146;-68
2022/02/02 06:58:29;;;;;;;13.48;7.22;;;;;;;-1.93;60.37;99506.98;1747076;81;21099;-68
2022/02/02 07:01:28;;;;;;;14.55;7.40;;;;;;;-1.76;60.10;99509.48;1748149;82;22597;-67
2022/02/02 07:04:05;;;;;;;17.82;9.28;;;;;;;-1.61;59.83;99513.22;1744938;80;21158;-68
2022/02/02 07:06:46;;;;;;;19.07;10.48;;;;;;;-1.46;59.51;99509.05;1693668;83;21022;-68
2022/02/02 07:09:18;;;;;;;19.42;10.40;;;;;;;-1.32;59.22;99503.88;1743392;80;21088;-69
2022/02/02 07:12:07;;;;;;;17.32;10.10;;;;;;;-1.24;58.75;99503.88;1747858;81;20988;-68
2022/02/02 07:17:09;;;;;;;11.85;7.47;;;;;;;-1.09;58.50;99498.87;1748338;80;22176;-67
2022/02/02 07:19:35;;;;;;;13.45;6.78;;;;;;;-0.97;58.33;99499.86;1745084;81;21083;-66
2022/02/02 07:22:15;;;;;;;11.68;6.67;;;;;;;-0.87;58.06;99496.28;1745039;80;21043;-67
2022/02/02 07:25:12;;;;;;;12.35;6.17;;;;;;;-0.75;57.94;99495.94;1745144;80;21435;-67
2022/02/02 07:30:13;;;;;;;14.33;6.95;;;;;;;-0.54;57.44;99487.45;1604076;87;21191;-68
2022/02/02 07:32:44;;;;;;;10.75;6.55;;;;;;;-0.41;57.23;99489.20;1683078;83;21004;-67
2022/02/02 07:37:46;;;;;;;11.63;6.20;;;;;;;-0.17;56.67;99496.80;1714870;81;21019;-68
2022/02/02 07:40:13;;;;;;;;;;;;;;;-0.05;56.27;99494.59;1718074;81;21016;-68
2022/02/02 07:42:47;;;;;;;9.98;5.42;;;;;;;0.06;55.95;99490.47;1714910;82;21966;-67
2022/02/02 07:45:17;;;;;;;10.28;5.87;;;;;;;0.15;55.63;99487.08;1715021;83;20957;-66
2022/02/02 07:47:47;;;;;;;11.00;5.60;;;;;;;0.29;55.19;99495.64;1714920;82;21574;-67
2022/02/02 07:50:14;;;;;;;14.40;7.08;;;;;;;0.36;54.95;99488.50;1715225;81;21016;-68
2022/02/02 07:52:43;;;;;;;12.58;5.80;;;;;;;0.44;54.66;99490.34;1714986;83;21541;-67
2022/02/02 07:55:12;;;;;;;9.75;5.28;;;;;;;0.50;54.47;99493.94;1715154;82;21180;-67
2022/02/02 07:57:43;;;;;;;11.18;5.25;;;;;;;0.57;54.43;99490.73;1714786;83;21076;-68
2022/02/02 08:00:17;;;;;;;8.40;5.20;;;;;;;0.71;54.37;99488.77;1729752;81;21561;-68
2022/02/02 08:03:07;;;;;;;11.00;5.58;;;;;;;0.87;54.16;99484.76;1747825;81;21064;-68
2022/02/02 08:05:31;;;;;;;11.83;5.12;;;;;;;0.99;53.93;99472.97;1747543;81;20969;-67
2022/02/02 08:10:42;;;;;;;10.25;5.37;;;;;;;1.16;53.30;99476.63;1748346;80;21008;-68
2022/02/02 08:13:23;;;;;;;7.95;4.67;;;;;;;1.27;53.10;99479.02;1748170;80;21059;-68
2022/02/02 08:15:56;;;;;;;10.45;5.17;;;;;;;1.36;52.85;99478.48;1704465;81;20996;-68
2022/02/02 08:18:17;;;;;;;12.35;6.50;;;;;;;1.45;52.68;99476.84;1747286;81;21573;-67
2022/02/02 08:20:43;;;;;;;11.93;5.95;;;;;;;1.55;52.50;99469.23;1748312;80;22126;-67
2022/02/02 08:23:11;;;;;;;11.15;6.17;;;;;;;1.63;52.24;99468.38;1748087;81;21064;-68
2022/02/02 08:25:39;;;;;;;13.53;6.35;;;;;;;1.74;52.00;99471.27;1730423;81;21078;-68
2022/02/02 08:28:08;;;;;;;13.38;6.78;;;;;;;1.79;51.66;99463.51;1714884;83;21473;-68
2022/02/02 08:30:36;;;;;;;14.25;7.47;;;;;;;1.83;51.73;99465.97;1715035;83;21092;-68
2022/02/02 08:33:06;;;;;;;14.83;7.58;;;;;;;1.96;51.74;99465.77;1714932;83;21485;-68
2022/02/02 08:35:41;;;;;;;15.48;7.85;;;;;;;2.10;51.62;99455.28;1714989;82;21103;-67
2022/02/02 08:40:42;;;;;;;13.98;7.28;;;;;;;2.42;51.28;99457.59;1719051;81;21309;-68
2022/02/02 08:43:14;;;;;;;12.13;6.83;;;;;;;2.60;51.09;99451.40;1733708;80;21040;-66
2022/02/02 08:45:41;;;;;;;12.50;6.90;;;;;;;2.79;50.87;99450.71;1721861;81;22076;-68
2022/02/02 08:48:09;;;;;;;12.73;6.92;;;;;;;2.96;50.55;99454.25;1699237;82;21030;-68
2022/02/02 08:50:49;;;;;;;11.63;7.08;;;;;;;3.12;50.31;99451.36;1689531;84;21728;-67
2022/02/02 08:58:22;;;;;;;14.37;7.87;;;;;;;3.48;49.50;99436.98;1634351;87;24596;-69
2022/02/02 09:00:49;;;;;;;14.65;7.83;;;;;;;3.55;49.43;99440.78;1697575;84;21488;-69
2022/02/02 09:06:01;;;;;;;14.73;7.40;;;;;;;3.72;49.15;99438.19;1693210;84;21774;-69
2022/02/02 09:08:30;;;;;;;17.52;8.63;;;;;;;3.84;49.10;99442.06;1690456;82;21115;-68
2022/02/02 09:25:02;;;;;;;18.17;9.15;;;;;;;4.42;48.49;99417.82;1665331;84;21122;-71
2022/02/02 09:35:09;;;;;;;14.47;8.93;;;;;;;4.84;48.17;99405.38;1712164;82;21105;-70
2022/02/02 09:37:36;;;;;;;16.02;9.35;;;;;;;4.82;48.04;99392.92;1704594;82;21416;-73
2022/02/02 09:42:41;;;;;;;15.88;8.95;;;;;;;4.80;47.98;99381.77;1635248;86;21565;-69
2022/02/02 09:45:12;;;;;;;13.88;8.73;;;;;;;4.82;48.12;99384.98;1696139;84;21544;-71
2022/02/02 09:47:47;;;;;;;15.48;9.35;;;;;;;4.84;48.04;99374.96;1690781;84;21617;-70
2022/02/02 09:50:29;;;;;;;17.40;9.28;;;;;;;4.83;48.05;99370.70;1689008;84;21582;-71
2022/02/02 09:52:55;;;;;;;16.20;9.25;;;;;;;4.85;48.07;99367.29;1695179;84;21075;-70
2022/02/02 09:55:31;;;;;;;19.10;9.88;;;;;;;4.90;48.12;99356.77;1666265;85;21134;-69
2022/02/02 09:58:19;;;;;;;16.55;9.20;;;;;;;4.92;48.11;99352.55;1680545;83;21073;-72
2022/02/02 10:03:23;;;;;;;13.03;7.72;;;;;;;4.86;48.07;99346.39;1653757;84;21083;-70
2022/02/02 10:05:48;;;;;;;15.80;8.28;;;;;;;4.85;48.15;99339.52;1682141;84;21057;-70
2022/02/02 10:11:00;;;;;;;12.70;7.47;;;;;;;5.01;48.33;99337.03;1715209;82;21881;-69
2022/02/02 10:13:35;;;;;;;12.00;6.87;;;;;;;5.11;48.17;99335.80;1712897;82;21214;-69
2022/02/02 10:15:54;;;;;;;16.05;8.08;;;;;;;5.21;48.16;99337.21;1710128;82;28566;-69
2022/02/02 10:18:30;;;;;;;14.38;7.25;;;;;;;5.30;48.14;99331.73;1694419;84;21614;-69
2022/02/02 10:20:57;;;;;;;15.35;6.87;;;;;;;5.41;48.05;99332.61;1693582;84;21052;-69
2022/02/02 10:23:27;;;;;;;12.20;7.28;;;;;;;5.49;47.90;99336.11;1698056;84;21060;-69
2022/02/02 10:25:59;;;;;;;13.85;7.28;;;;;;;5.54;47.85;99330.06;1683013;84;22024;-70
2022/02/02 10:28:31;;;;;;;14.20;7.20;;;;;;;5.52;47.86;99329.52;1695857;84;21106;-71
2022/02/02 10:31:06;;;;;;;13.60;6.53;;;;;;;5.50;47.95;99330.31;1696745;84;21076;-69
2022/02/02 10:33:34;;;;;;;10.35;6.60;;;;;;;5.46;48.02;99326.55;1682033;83;21079;-69
2022/02/02 10:36:11;;;;;;;13.70;7.10;;;;;;;5.38;48.11;99331.80;1682691;83;21071;-69
2022/02/02 10:38:59;;;;;;;14.00;6.97;;;;;;;5.35;48.37;99330.97;1676366;83;21569;-69
2022/02/02 10:43:44;;;;;;;11.93;6.72;;;;;;;5.31;48.59;99314.00;1681115;82;21644;-69
2022/02/02 10:46:35;;;;;;;9.10;4.95;;;;;;;5.31;48.78;99303.41;1693186;84;21027;-69
2022/02/02 10:49:13;;;;;;;14.33;6.65;;;;;;;5.33;48.88;99313.20;1683562;83;21712;-69
2022/02/02 10:51:47;;;;;;;12.28;6.80;;;;;;;5.32;49.07;99310.30;1685672;83;21160;-68
2022/02/02 10:54:32;;;;;;;13.50;6.90;;;;;;;5.34;49.29;99312.97;1675698;83;21591;-69
2022/02/02 11:07:48;;;;;;;13.60;7.30;;;;;;;5.54;49.85;99279.74;1638337;84;21055;-69
2022/02/02 11:10:14;;;;;;;15.75;7.53;;;;;;;5.56;49.99;99278.45;1672490;84;21021;-70
2022/02/02 11:12:41;;;;;;;14.18;7.60;;;;;;;5.58;50.08;99272.34;1692125;83;21150;-70
2022/02/02 11:15:25;;;;;;;12.65;7.17;;;;;;;5.60;50.15;99270.78;1703215;81;20964;-69
2022/02/02 11:18:09;;;;;;;15.18;8.10;;;;;;;5.62;50.28;99268.66;1665085;84;21150;-69
2022/02/02 11:20:41;;;;;;;20.08;8.75;;;;;;;5.59;50.34;99273.14;1676948;83;20966;-69
2022/02/02 11:23:05;;;;;;;20.08;8.93;;;;;;;5.58;50.52;99266.25;1693359;84;21702;-70
2022/02/02 11:25:39;;;;;;;17.98;9.15;;;;;;;5.57;50.64;99265.47;1694949;84;20990;-69
2022/02/02 11:28:34;;;;;;;15.83;8.83;;;;;;;5.59;50.68;99268.66;1694230;84;21551;-71
2022/02/02 11:31:17;;;;;;;19.73;9.70;;;;;;;5.61;50.71;99260.45;1695173;84;21132;-69
2022/02/02 11:33:47;;;;;;;15.80;8.70;;;;;;;5.60;50.85;99256.22;1694942;84;21033;-69
2022/02/02 11:36:31;;;;;;;16.50;8.30;;;;;;;5.61;50.89;99257.27;1695394;84;21620;-69
2022/02/02 11:38:57;;;;;;;15.60;8.15;;;;;;;5.62;50.98;99254.88;1694555;84;20961;-71
2022/02/02 11:44:20;;;;;;;15.00;7.87;;;;;;;5.60;51.10;99254.36;1694953;84;21149;-70
2022/02/02 11:50:00;;;;;;;16.17;7.47;;;;;;;5.55;51.27;99238.95;1694715;84;21646;-69
2022/02/02 11:52:38;;;;;;;16.27;7.80;;;;;;;5.53;51.39;99249.02;1694408;84;21550;-68
2022/02/02 11:55:13;;;;;;;16.45;7.60;;;;;;;5.54;51.48;99258.56;1684131;84;21077;-69
2022/02/02 11:58:14;;;;;;;14.03;6.95;;;;;;;5.52;51.46;99249.53;1669888;84;21185;-69
2022/02/02 12:01:08;;;;;;;15.23;7.30;;;;;;;5.54;51.53;99250.61;1695291;84;21172;-69
2022/02/02 12:04:03;;;;;;;16.57;6.80;;;;;;;5.56;51.55;99246.66;1690580;84;21483;-69
2022/02/02 12:09:07;;;;;;;12.28;7.12;;;;;;;5.54;51.58;99236.05;1695179;84;21529;-69
2022/02/02 12:47:50;;;;;;;13.95;6.35;;;;;;;5.47;52.06;99236.80;1725519;82;20985;-69
2022/02/02 12:50:28;;;;;;;14.68;7.28;;;;;;;5.37;52.16;99237.00;1729107;82;20993;-70
2022/02/02 12:58:18;;;;;;;18.67;7.53;;;;;;;5.27;52.42;99250.17;1729821;83;21123;-69
2022/02/02 13:03:10;;;;;;;11.38;5.80;;;;;;;5.17;52.69;99250.09;1748263;81;21629;-69
2022/02/02 13:05:41;;;;;;;10.32;6.00;;;;;;;5.10;52.80;99250.81;1748311;80;21324;-69
2022/02/02 13:08:08;;;;;;;10.58;5.70;;;;;;;5.02;52.97;99254.73;1748438;80;20999;-69
2022/02/02 13:10:38;;;;;;;11.93;6.00;;;;;;;4.97;53.11;99265.78;1748371;80;21004;-69
2022/02/02 13:13:24;;;;;;;12.68;6.05;;;;;;;4.90;53.27;99262.02;1748286;82;21067;-69
2022/02/02 13:15:54;;;;;;;14.00;6.90;;;;;;;4.84;53.43;99265.70;1743179;80;20996;-68
2022/02/02 13:26:07;;;;;;;10.08;5.60;;;;;;;4.68;54.01;99280.09;1715617;82;21692;-68
2022/02/02 13:31:48;;;;;;;14.05;7.55;;;;;;;4.59;54.25;99287.39;1719028;81;21694;-68
2022/02/02 13:46:18;;;;;;;12.43;6.70;;;;;;;4.49;55.34;99301.83;1718717;81;21156;-70
2022/02/02 13:51:29;;;;;;;14.95;7.60;;;;;;;4.40;55.63;99295.64;1718597;82;21052;-70
2022/02/02 14:07:09;;;;;;;14.35;7.97;;;;;;;3.99;56.89;99299.64;1719149;82;21010;-69
2022/02/02 14:09:38;;;;;;;12.73;7.25;;;;;;;3.93;57.12;99303.26;1685741;84;21552;-69
2022/02/02 14:31:09;;;;;;;17.73;8.65;;;;;;;3.44;58.68;99309.15;1683868;82;21103;-70
2022/02/02 14:33:33;;;;;;;19.55;9.40;;;;;;;3.40;58.84;99308.04;1688908;83;21008;-70
2022/02/02 14:36:03;;;;;;;21.00;10.05;;;;;;;3.38;59.02;99314.59;1679148;85;21016;-70
2022/02/02 14:38:36;;;;;;;20.10;9.95;;;;;;;3.33;59.16;99311.89;1712013;83;21056;-70
2022/02/02 14:41:08;;;;;;;16.45;9.93;;;;;;;3.29;59.31;99304.94;1710285;82;21465;-69
2022/02/02 14:43:48;;;;;;;20.20;10.95;;;;;;;3.25;59.52;99309.90;1704736;82;21063;-69
2022/02/02 14:46:10;;;;;;;19.17;10.20;;;;;;;3.22;59.67;99302.98;1728921;82;20974;-69
2022/02/02 14:48:43;;;;;;;19.82;10.18;;;;;;;3.18;59.81;99314.54;1726191;82;20945;-70
2022/02/02 14:51:20;;;;;;;20.82;9.30;;;;;;;3.15;59.95;99307.63;1728962;82;21552;-69
2022/02/02 15:30:45;;;;;;;23.42;13.62;;;;;;;2.14;62.40;99333.17;1748490;80;22000;-70
2022/02/02 15:33:05;;;;;;;25.52;13.88;;;;;;;2.09;62.57;99335.16;1742202;80;21079;-71
2022/02/02 15:35:32;;;;;;;21.77;13.15;;;;;;;2.04;62.74;99334.25;1714806;82;21532;-68
2022/02/02 15:38:14;;;;;;;24.63;13.28;;;;;;;2.00;62.88;99338.37;1748571;80;20992;-69
2022/02/02 15:40:39;;;;;;;;;;;;;;;1.98;63.02;99339.94;1748894;81;21047;-69
2022/02/02 15:59:08;;;;;;;26.87;16.93;;;;;;;1.72;64.05;99349.62;1744531;81;20932;-69
2022/02/02 16:04:13;;;;;;;28.17;15.93;;;;;;;1.65;64.31;99340.52;1748140;80;21483;-69
2022/02/02 16:06:34;;;;;;;25.52;15.65;;;;;;;1.62;64.42;99345.72;1746601;81;21046;-68
2022/02/02 16:09:17;;;;;;;25.55;15.38;;;;;;;1.60;64.47;99353.03;1748058;81;22038;-71
2022/02/02 16:11:31;;;;;;;27.65;15.90;;;;;;;1.56;64.56;99347.94;1745046;82;21036;-70
2022/02/02 16:14:03;;;;;;;25.65;15.03;;;;;;;1.54;64.69;99348.67;1738939;82;21531;-69
2022/02/02 16:16:44;;;;;;;26.65;15.80;;;;;;;1.52;64.80;99353.89;1714707;83;21008;-69
2022/02/02 16:19:02;;;;;;;30.72;16.77;;;;;;;1.48;64.94;99348.28;1714169;81;21074;-68
2022/02/02 16:33:00;;;;;;;33.05;18.05;;;;;;;1.30;65.80;99357.05;1728641;81;21146;-70
2022/02/02 16:37:34;;;;;;;34.45;17.90;;;;;;;1.29;66.06;99355.45;1718502;81;20991;-69
2022/02/02 16:40:00;;;;;;;27.60;17.10;;;;;;;1.28;66.18;99355.66;1717630;83;21483;-69
2022/02/02 16:45:13;;;;;;;30.57;17.42;;;;;;;1.27;66.40;99364.59;1733449;80;21451;-69
2022/02/02 16:47:39;;;;;;;27.37;17.32;;;;;;;1.27;66.53;99361.44;1744641;81;21514;-69
2022/02/02 16:50:35;;;;;;;28.47;17.55;;;;;;;1.26;66.61;99346.69;1748262;81;21064;-70
2022/02/02 16:53:01;;;;;;;31.68;18.55;;;;;;;1.28;66.69;99364.87;1702407;84;21070;-70
2022/02/02 17:33:32;;;;;;;33.95;19.45;;;;;;;1.29;67.64;99383.08;1705523;82;21170;-71
2022/02/02 17:38:43;;;;;;;33.30;19.05;;;;;;;1.36;67.73;99370.62;1717881;81;21537;-70
2022/02/02 17:56:24;;;;;;;35.58;20.70;;;;;;;1.55;67.82;99365.28;1663254;82;21041;-70
2022/02/02 18:13:20;;;;;;;33.63;19.75;;;;;;;1.93;67.63;99364.83;1703714;82;21065;-70
2022/02/02 18:20:38;;;;;;;35.58;20.17;;;;;;;1.97;67.63;99371.23;1591569;87;21078;-72
2022/02/02 18:23:17;;;;;;;31.37;18.87;;;;;;;1.98;67.65;99358.38;1633137;86;26697;-73
2022/02/02 18:28:21;;;;;;;31.95;18.57;;;;;;;1.99;67.69;99368.39;1644464;84;21096;-71
2022/02/02 18:30:54;;;;;;;29.60;17.75;;;;;;;2.00;67.75;99370.78;1706230;82;21498;-70
2022/02/02 18:33:22;;;;;;;31.70;18.70;;;;;;;2.01;67.81;99365.81;1711975;81;21068;-71
2022/02/02 18:35:48;;;;;;;31.55;19.05;;;;;;;2.05;67.85;99375.37;1699276;82;21659;-72
2022/02/02 18:48:44;;;;;;;32.03;16.85;;;;;;;2.25;67.85;99372.38;1640218;84;21645;-71
2022/02/02 19:01:39;;;;;;;30.52;16.90;;;;;;;2.44;67.63;99364.61;1705118;82;21113;-71
2022/02/02 19:55:39;;;;;;;28.67;17.10;;;;;;;2.80;66.80;99396.96;1663269;82;21081;-70
2022/02/02 20:09:19;;;;;;;32.40;18.30;;;;;;;2.76;66.77;99394.48;1721169;81;21016;-72
2022/02/02 20:11:20;;;;;;;31.82;17.02;;;;;;;2.74;66.82;99397.38;1701752;82;22184;-71
2022/02/02 20:13:46;;;;;;;29.48;16.32;;;;;;;2.74;66.85;99395.25;1694676;82;21057;-70
2022/02/02 20:16:13;;;;;;;29.70;16.93;;;;;;;2.75;66.87;99396.84;1709055;82;21603;-69
2022/02/02 20:18:44;;;;;;;29.82;16.65;;;;;;;2.75;66.87;99396.33;1666314;85;21055;-70
2022/02/02 20:21:12;;;;;;;32.63;16.87;;;;;;;2.76;66.86;99394.48;1678696;84;21474;-70
2022/02/02 20:23:46;;;;;;;26.60;15.75;;;;;;;2.76;66.91;99397.95;1687411;83;21022;-70
2022/02/02 20:26:14;;;;;;;26.80;14.50;;;;;;;2.74;66.93;99396.05;1675874;84;21288;-71
2022/02/02 20:28:39;;;;;;;23.00;14.53;;;;;;;2.74;66.96;99393.41;1650933;86;21159;-71
2022/02/02 20:31:06;;;;;;;29.72;15.72;;;;;;;2.73;66.98;99402.86;1709521;82;21450;-70
2022/02/02 20:33:33;;;;;;;26.60;15.58;;;;;;;2.70;67.01;99404.64;1711901;82;21097;-69
2022/02/02 20:36:00;;;;;;;28.45;15.65;;;;;;;2.70;67.08;99404.64;1668804;84;21073;-69
2022/02/02 20:38:27;;;;;;;28.87;15.93;;;;;;;2.71;67.09;99411.02;1666776;84;21053;-70
2022/02/02 20:40:53;;;;;;;23.92;14.28;;;;;;;2.74;67.12;99401.84;1677428;84;21121;-70
2022/02/02 20:43:32;;;;;;;25.02;14.68;;;;;;;2.75;67.14;99406.87;1682930;83;21055;-71
2022/02/02 21:08:16;;;;;;;24.60;13.50;;;;;;;2.82;67.13;99423.88;1659114;86;21204;-70
2022/02/02 21:10:24;;;;;;;24.52;14.25;;;;;;;2.84;67.15;99421.02;1655312;86;21094;-70
2022/02/02 21:15:35;;;;;;;25.75;14.70;;;;;;;2.84;67.18;99419.70;1684542;82;21104;-70
2022/02/02 21:18:08;;;;;;;25.57;14.10;;;;;;;2.82;67.15;99420.72;1672339;84;21080;-71
2022/02/02 21:20:40;;;;;;;24.63;14.68;;;;;;;2.84;67.17;99423.14;1697471;82;21102;-71
2022/02/02 21:23:03;;;;;;;27.82;15.30;;;;;;;2.86;67.18;99428.96;1708106;82;21583;-69
2022/02/02 21:25:41;;;;;;;23.15;14.60;;;;;;;2.89;67.15;99427.18;1697608;82;21058;-69
2022/02/02 21:28:04;;;;;;;24.02;14.43;;;;;;;2.87;67.11;99423.99;1706903;82;21696;-69
2022/02/02 21:30:35;;;;;;;25.23;15.28;;;;;;;2.87;67.12;99427.16;1699130;83;20965;-70
2022/02/02 21:33:01;;;;;;;25.77;14.80;;;;;;;2.87;67.09;99432.42;1701877;83;21499;-69
2022/02/02 21:35:34;;;;;;;26.80;15.98;;;;;;;2.88;67.11;99428.22;1700087;82;21703;-70
2022/02/02 21:38:09;;;;;;;23.85;14.95;;;;;;;2.89;67.13;99432.98;1699322;82;21038;-70
2022/02/02 21:40:34;;;;;;;25.88;14.70;;;;;;;2.88;67.05;99446.69;1709775;82;21659;-70
2022/02/02 21:43:01;;;;;;;22.85;14.65;;;;;;;2.86;67.02;99446.10;1707134;82;21480;-69
2022/02/02 21:45:29;;;;;;;23.85;13.62;;;;;;;2.83;67.04;99445.28;1700497;82;21216;-70
2022/02/02 21:47:57;;;;;;;20.45;13.38;;;;;;;2.82;67.04;99441.81;1702115;83;21612;-70
2022/02/02 21:50:31;;;;;;;22.82;14.53;;;;;;;2.82;67.09;99442.34;1724102;82;21564;-70
2022/02/02 21:52:57;;;;;;;26.35;14.43;;;;;;;2.79;67.09;99442.28;1700653;82;21671;-70
2022/02/02 21:55:24;;;;;;;25.32;14.60;;;;;;;2.80;67.13;99444.42;1709367;82;21556;-68
2022/02/02 21:57:51;;;;;;;20.80;13.05;;;;;;;2.81;67.10;99451.30;1702054;82;22016;-68
2022/02/02 22:00:18;;;;;;;26.50;14.47;;;;;;;2.82;67.12;99456.84;1709733;82;21054;-69
2022/02/02 22:02:44;;;;;;;24.92;14.70;;;;;;;2.85;67.10;99457.70;1702680;82;21115;-68
2022/02/02 22:05:11;;;;;;;23.35;13.80;;;;;;;2.86;67.08;99452.70;1706750;82;21126;-68
2022/02/02 22:07:39;;;;;;;24.40;14.53;;;;;;;2.88;67.07;99455.12;1705294;81;20969;-68